sensor_id;sensor_type;location;lat;lon;timestamp;P1;durP1;ratioP1;P2;durP2;ratioP2
59486;SDS011;45298;54.918;73.504;2023-07-24T00:01:04;14.30;;;12.25;;
59486;SDS011;45298;54.918;73.504;2023-07-24T00:03:32;17.08;;;11.90;;
59486;SDS011;45298;54.918;73.504;2023-07-24T00:06:01;15.23;;;10.23;;
59486;SDS011;45298;54.918;73.504;2023-07-24T00:08:30;14.48;;;11.20;;
59486;SDS011;45298;54.918;73.504;2023-07-24T00:10:59;8.95;;;6.50;;
59486;SDS011;45298;54.918;73.504;2023-07-24T00:13:28;15.35;;;9.27;;
59486;SDS011;45298;54.918;73.504;2023-07-24T00:15:57;12.88;;;10.15;;
59486;SDS011;45298;54.918;73.504;2023-07-24T00:18:26;13.93;;;11.00;;
59486;SDS011;45298;54.918;73.504;2023-07-24T00:20:55;13.25;;;10.70;;
59486;SDS011;45298;54.918;73.504;2023-07-24T00:23:24;13.38;;;10.80;;
59486;SDS011;45298;54.918;73.504;2023-07-24T00:25:53;15.27;;;11.18;;
59486;SDS011;45298;54.918;73.504;2023-07-24T00:28:22;9.07;;;6.20;;
59486;SDS011;45298;54.918;73.504;2023-07-24T00:30:50;8.20;;;6.38;;
59486;SDS011;45298;54.918;73.504;2023-07-24T00:33:19;5.35;;;4.38;;
59486;SDS011;45298;54.918;73.504;2023-07-24T00:35:49;11.48;;;8.25;;
59486;SDS011;45298;54.918;73.504;2023-07-24T00:38:18;8.52;;;6.72;;
59486;SDS011;45298;54.918;73.504;2023-07-24T00:40:47;9.23;;;6.63;;
59486;SDS011;45298;54.918;73.504;2023-07-24T00:43:16;9.07;;;6.30;;
59486;SDS011;45298;54.918;73.504;2023-07-24T00:45:45;7.25;;;5.25;;
59486;SDS011;45298;54.918;73.504;2023-07-24T00:48:16;7.53;;;5.47;;
59486;SDS011;45298;54.918;73.504;2023-07-24T00:50:45;7.07;;;5.53;;
59486;SDS011;45298;54.918;73.504;2023-07-24T00:53:14;7.75;;;6.43;;
59486;SDS011;45298;54.918;73.504;2023-07-24T00:55:44;8.20;;;6.55;;
59486;SDS011;45298;54.918;73.504;2023-07-24T00:58:14;7.35;;;5.63;;
59486;SDS011;45298;54.918;73.504;2023-07-24T01:00:46;11.85;;;6.03;;
59486;SDS011;45298;54.918;73.504;2023-07-24T01:03:15;10.93;;;5.45;;
59486;SDS011;45298;54.918;73.504;2023-07-24T01:05:44;7.55;;;4.93;;
59486;SDS011;45298;54.918;73.504;2023-07-24T01:08:13;6.75;;;4.70;;
59486;SDS011;45298;54.918;73.504;2023-07-24T01:10:42;5.05;;;4.20;;
59486;SDS011;45298;54.918;73.504;2023-07-24T01:13:19;6.88;;;4.13;;
59486;SDS011;45298;54.918;73.504;2023-07-24T01:18:31;5.60;;;3.28;;
59486;SDS011;45298;54.918;73.504;2023-07-24T01:21:02;8.20;;;3.67;;
59486;SDS011;45298;54.918;73.504;2023-07-24T01:26:59;6.70;;;3.63;;
59486;SDS011;45298;54.918;73.504;2023-07-24T01:29:27;7.85;;;4.00;;
59486;SDS011;45298;54.918;73.504;2023-07-24T01:31:57;4.90;;;3.33;;
59486;SDS011;45298;54.918;73.504;2023-07-24T01:34:25;7.05;;;3.13;;
59486;SDS011;45298;54.918;73.504;2023-07-24T01:36:54;8.50;;;4.13;;
59486;SDS011;45298;54.918;73.504;2023-07-24T01:39:23;14.23;;;8.55;;
59486;SDS011;45298;54.918;73.504;2023-07-24T01:41:52;8.05;;;2.92;;
59486;SDS011;45298;54.918;73.504;2023-07-24T01:44:23;4.25;;;2.80;;
59486;SDS011;45298;54.918;73.504;2023-07-24T01:46:52;5.70;;;4.43;;
59486;SDS011;45298;54.918;73.504;2023-07-24T01:49:20;4.80;;;2.50;;
59486;SDS011;45298;54.918;73.504;2023-07-24T01:51:49;7.53;;;3.55;;
59486;SDS011;45298;54.918;73.504;2023-07-24T01:54:18;5.00;;;2.58;;
59486;SDS011;45298;54.918;73.504;2023-07-24T01:56:47;4.28;;;2.20;;
59486;SDS011;45298;54.918;73.504;2023-07-24T01:59:15;6.38;;;2.20;;
59486;SDS011;45298;54.918;73.504;2023-07-24T02:01:44;3.80;;;2.00;;
59486;SDS011;45298;54.918;73.504;2023-07-24T02:04:14;3.67;;;2.00;;
59486;SDS011;45298;54.918;73.504;2023-07-24T02:06:43;4.68;;;1.80;;
59486;SDS011;45298;54.918;73.504;2023-07-24T02:09:11;3.67;;;2.33;;
59486;SDS011;45298;54.918;73.504;2023-07-24T02:11:40;7.15;;;2.40;;
59486;SDS011;45298;54.918;73.504;2023-07-24T02:14:09;5.57;;;2.90;;
59486;SDS011;45298;54.918;73.504;2023-07-24T02:16:40;7.05;;;3.40;;
59486;SDS011;45298;54.918;73.504;2023-07-24T02:19:08;7.43;;;4.15;;
59486;SDS011;45298;54.918;73.504;2023-07-24T02:21:37;7.25;;;4.03;;
59486;SDS011;45298;54.918;73.504;2023-07-24T02:24:06;6.80;;;4.10;;
59486;SDS011;45298;54.918;73.504;2023-07-24T02:26:35;13.90;;;5.20;;
59486;SDS011;45298;54.918;73.504;2023-07-24T02:29:04;6.80;;;3.90;;
59486;SDS011;45298;54.918;73.504;2023-07-24T02:31:33;5.10;;;3.22;;
59486;SDS011;45298;54.918;73.504;2023-07-24T02:34:03;8.23;;;3.83;;
59486;SDS011;45298;54.918;73.504;2023-07-24T02:36:32;10.40;;;3.30;;
59486;SDS011;45298;54.918;73.504;2023-07-24T02:39:01;4.40;;;2.95;;
59486;SDS011;45298;54.918;73.504;2023-07-24T02:41:31;8.40;;;3.28;;
59486;SDS011;45298;54.918;73.504;2023-07-24T02:44:02;6.38;;;2.90;;
59486;SDS011;45298;54.918;73.504;2023-07-24T02:46:32;9.05;;;3.08;;
59486;SDS011;45298;54.918;73.504;2023-07-24T02:49:03;5.63;;;2.85;;
59486;SDS011;45298;54.918;73.504;2023-07-24T02:51:33;5.07;;;2.85;;
59486;SDS011;45298;54.918;73.504;2023-07-24T02:54:02;10.30;;;3.13;;
59486;SDS011;45298;54.918;73.504;2023-07-24T02:56:33;9.52;;;3.70;;
59486;SDS011;45298;54.918;73.504;2023-07-24T02:59:02;8.00;;;3.83;;
59486;SDS011;45298;54.918;73.504;2023-07-24T03:01:31;9.88;;;3.53;;
59486;SDS011;45298;54.918;73.504;2023-07-24T03:04:00;8.98;;;3.47;;
59486;SDS011;45298;54.918;73.504;2023-07-24T03:06:30;5.93;;;3.40;;
59486;SDS011;45298;54.918;73.504;2023-07-24T03:08:59;5.75;;;3.83;;
59486;SDS011;45298;54.918;73.504;2023-07-24T03:11:28;6.55;;;3.70;;
59486;SDS011;45298;54.918;73.504;2023-07-24T03:13:57;9.05;;;3.55;;
59486;SDS011;45298;54.918;73.504;2023-07-24T03:16:26;12.18;;;3.28;;
59486;SDS011;45298;54.918;73.504;2023-07-24T03:18:56;8.38;;;3.00;;
59486;SDS011;45298;54.918;73.504;2023-07-24T03:21:25;7.22;;;2.83;;
59486;SDS011;45298;54.918;73.504;2023-07-24T03:23:54;6.88;;;3.13;;
59486;SDS011;45298;54.918;73.504;2023-07-24T03:26:23;5.57;;;2.90;;
59486;SDS011;45298;54.918;73.504;2023-07-24T03:28:52;5.90;;;2.55;;
59486;SDS011;45298;54.918;73.504;2023-07-24T03:31:21;6.45;;;2.58;;
59486;SDS011;45298;54.918;73.504;2023-07-24T03:33:51;5.38;;;2.40;;
59486;SDS011;45298;54.918;73.504;2023-07-24T03:36:20;5.63;;;2.80;;
59486;SDS011;45298;54.918;73.504;2023-07-24T03:38:51;5.50;;;2.50;;
59486;SDS011;45298;54.918;73.504;2023-07-24T03:41:20;4.93;;;2.72;;
59486;SDS011;45298;54.918;73.504;2023-07-24T03:43:49;5.63;;;3.03;;
59486;SDS011;45298;54.918;73.504;2023-07-24T03:46:19;3.78;;;2.30;;
59486;SDS011;45298;54.918;73.504;2023-07-24T03:48:48;7.05;;;2.25;;
59486;SDS011;45298;54.918;73.504;2023-07-24T03:51:18;5.00;;;2.15;;
59486;SDS011;45298;54.918;73.504;2023-07-24T03:53:47;4.85;;;2.17;;
59486;SDS011;45298;54.918;73.504;2023-07-24T03:56:17;6.07;;;2.20;;
59486;SDS011;45298;54.918;73.504;2023-07-24T03:58:46;4.28;;;2.17;;
59486;SDS011;45298;54.918;73.504;2023-07-24T04:01:14;4.72;;;1.88;;
59486;SDS011;45298;54.918;73.504;2023-07-24T04:03:43;3.03;;;1.80;;
59486;SDS011;45298;54.918;73.504;2023-07-24T04:06:13;3.80;;;2.20;;
59486;SDS011;45298;54.918;73.504;2023-07-24T04:08:41;8.52;;;2.30;;
59486;SDS011;45298;54.918;73.504;2023-07-24T04:11:10;5.53;;;2.50;;
59486;SDS011;45298;54.918;73.504;2023-07-24T04:13:40;4.68;;;2.22;;
59486;SDS011;45298;54.918;73.504;2023-07-24T04:16:08;6.30;;;2.10;;
59486;SDS011;45298;54.918;73.504;2023-07-24T04:18:37;4.90;;;2.10;;
59486;SDS011;45298;54.918;73.504;2023-07-24T04:21:06;4.85;;;2.22;;
59486;SDS011;45298;54.918;73.504;2023-07-24T04:23:35;6.00;;;2.40;;
59486;SDS011;45298;54.918;73.504;2023-07-24T04:26:07;4.18;;;2.00;;
59486;SDS011;45298;54.918;73.504;2023-07-24T04:28:36;4.32;;;2.40;;
59486;SDS011;45298;54.918;73.504;2023-07-24T04:31:04;4.63;;;2.25;;
59486;SDS011;45298;54.918;73.504;2023-07-24T04:33:33;7.50;;;2.38;;
59486;SDS011;45298;54.918;73.504;2023-07-24T04:36:02;8.13;;;2.30;;
59486;SDS011;45298;54.918;73.504;2023-07-24T04:38:31;4.70;;;2.20;;
59486;SDS011;45298;54.918;73.504;2023-07-24T04:41:01;5.25;;;2.10;;
59486;SDS011;45298;54.918;73.504;2023-07-24T04:43:30;6.28;;;2.10;;
59486;SDS011;45298;54.918;73.504;2023-07-24T04:45:59;7.57;;;2.30;;
59486;SDS011;45298;54.918;73.504;2023-07-24T04:48:28;4.82;;;2.30;;
59486;SDS011;45298;54.918;73.504;2023-07-24T04:50:57;6.25;;;2.30;;
59486;SDS011;45298;54.918;73.504;2023-07-24T04:53:26;6.55;;;2.30;;
59486;SDS011;45298;54.918;73.504;2023-07-24T04:55:55;8.02;;;4.38;;
59486;SDS011;45298;54.918;73.504;2023-07-24T04:58:27;7.25;;;2.40;;
59486;SDS011;45298;54.918;73.504;2023-07-24T05:00:56;3.17;;;2.10;;
59486;SDS011;45298;54.918;73.504;2023-07-24T05:03:25;3.33;;;2.03;;
59486;SDS011;45298;54.918;73.504;2023-07-24T05:05:54;5.00;;;2.10;;
59486;SDS011;45298;54.918;73.504;2023-07-24T05:08:24;5.25;;;1.90;;
59486;SDS011;45298;54.918;73.504;2023-07-24T05:10:53;7.47;;;2.65;;
59486;SDS011;45298;54.918;73.504;2023-07-24T05:13:23;4.45;;;2.22;;
59486;SDS011;45298;54.918;73.504;2023-07-24T05:15:52;3.90;;;2.00;;
59486;SDS011;45298;54.918;73.504;2023-07-24T05:18:21;5.20;;;1.50;;
59486;SDS011;45298;54.918;73.504;2023-07-24T05:20:50;3.08;;;1.70;;
59486;SDS011;45298;54.918;73.504;2023-07-24T05:23:22;3.80;;;1.42;;
59486;SDS011;45298;54.918;73.504;2023-07-24T05:25:59;5.00;;;2.28;;
59486;SDS011;45298;54.918;73.504;2023-07-24T05:28:30;4.03;;;1.83;;
59486;SDS011;45298;54.918;73.504;2023-07-24T05:31:00;3.20;;;2.08;;
59486;SDS011;45298;54.918;73.504;2023-07-24T05:33:31;5.38;;;2.75;;
59486;SDS011;45298;54.918;73.504;2023-07-24T05:36:00;3.75;;;1.98;;
59486;SDS011;45298;54.918;73.504;2023-07-24T05:38:30;6.65;;;2.33;;
59486;SDS011;45298;54.918;73.504;2023-07-24T05:41:00;3.00;;;1.70;;
59486;SDS011;45298;54.918;73.504;2023-07-24T05:43:30;4.75;;;1.70;;
59486;SDS011;45298;54.918;73.504;2023-07-24T05:46:01;3.30;;;1.70;;
59486;SDS011;45298;54.918;73.504;2023-07-24T05:48:30;4.13;;;1.58;;
59486;SDS011;45298;54.918;73.504;2023-07-24T05:50:59;2.72;;;1.60;;
59486;SDS011;45298;54.918;73.504;2023-07-24T05:53:28;4.63;;;1.40;;
59486;SDS011;45298;54.918;73.504;2023-07-24T05:55:57;2.00;;;1.40;;
59486;SDS011;45298;54.918;73.504;2023-07-24T05:58:30;3.60;;;1.57;;
59486;SDS011;45298;54.918;73.504;2023-07-24T06:00:59;3.53;;;1.35;;
59486;SDS011;45298;54.918;73.504;2023-07-24T06:03:28;7.18;;;1.40;;
59486;SDS011;45298;54.918;73.504;2023-07-24T06:05:57;1.80;;;1.40;;
59486;SDS011;45298;54.918;73.504;2023-07-24T06:08:26;4.47;;;1.30;;
59486;SDS011;45298;54.918;73.504;2023-07-24T06:10:55;5.10;;;1.40;;
59486;SDS011;45298;54.918;73.504;2023-07-24T06:13:24;5.00;;;1.38;;
59486;SDS011;45298;54.918;73.504;2023-07-24T06:15:53;2.08;;;1.40;;
59486;SDS011;45298;54.918;73.504;2023-07-24T06:18:22;2.35;;;1.38;;
59486;SDS011;45298;54.918;73.504;2023-07-24T06:20:52;5.43;;;1.60;;
59486;SDS011;45298;54.918;73.504;2023-07-24T06:23:21;2.75;;;1.20;;
59486;SDS011;45298;54.918;73.504;2023-07-24T06:25:53;2.65;;;1.50;;
59486;SDS011;45298;54.918;73.504;2023-07-24T06:28:23;3.08;;;1.30;;
59486;SDS011;45298;54.918;73.504;2023-07-24T06:30:52;4.28;;;1.38;;
59486;SDS011;45298;54.918;73.504;2023-07-24T06:33:22;2.22;;;1.33;;
59486;SDS011;45298;54.918;73.504;2023-07-24T06:35:51;2.75;;;1.20;;
59486;SDS011;45298;54.918;73.504;2023-07-24T06:38:20;3.05;;;1.35;;
59486;SDS011;45298;54.918;73.504;2023-07-24T06:40:50;3.10;;;1.30;;
59486;SDS011;45298;54.918;73.504;2023-07-24T06:43:19;4.78;;;1.33;;
59486;SDS011;45298;54.918;73.504;2023-07-24T06:45:48;2.50;;;1.30;;
59486;SDS011;45298;54.918;73.504;2023-07-24T06:48:17;3.17;;;1.30;;
59486;SDS011;45298;54.918;73.504;2023-07-24T06:50:46;2.70;;;1.30;;
59486;SDS011;45298;54.918;73.504;2023-07-24T06:53:14;3.00;;;1.40;;
59486;SDS011;45298;54.918;73.504;2023-07-24T06:55:44;2.70;;;1.40;;
59486;SDS011;45298;54.918;73.504;2023-07-24T06:58:13;5.38;;;1.55;;
59486;SDS011;45298;54.918;73.504;2023-07-24T07:00:42;4.47;;;1.40;;
59486;SDS011;45298;54.918;73.504;2023-07-24T07:03:11;3.92;;;1.45;;
59486;SDS011;45298;54.918;73.504;2023-07-24T07:05:39;2.35;;;1.40;;
59486;SDS011;45298;54.918;73.504;2023-07-24T07:08:08;1.70;;;1.30;;
59486;SDS011;45298;54.918;73.504;2023-07-24T07:10:37;4.40;;;1.40;;
59486;SDS011;45298;54.918;73.504;2023-07-24T07:13:07;2.35;;;1.40;;
59486;SDS011;45298;54.918;73.504;2023-07-24T07:15:35;2.17;;;1.10;;
59486;SDS011;45298;54.918;73.504;2023-07-24T07:18:04;2.78;;;1.20;;
59486;SDS011;45298;54.918;73.504;2023-07-24T07:20:33;2.65;;;1.30;;
59486;SDS011;45298;54.918;73.504;2023-07-24T07:23:02;1.83;;;1.20;;
59486;SDS011;45298;54.918;73.504;2023-07-24T07:25:31;5.22;;;1.38;;
59486;SDS011;45298;54.918;73.504;2023-07-24T07:28:00;2.72;;;1.42;;
59486;SDS011;45298;54.918;73.504;2023-07-24T07:30:29;3.65;;;1.50;;
59486;SDS011;45298;54.918;73.504;2023-07-24T07:32:58;3.03;;;1.48;;
59486;SDS011;45298;54.918;73.504;2023-07-24T07:35:27;2.67;;;1.40;;
59486;SDS011;45298;54.918;73.504;2023-07-24T07:37:58;3.13;;;1.65;;
59486;SDS011;45298;54.918;73.504;2023-07-24T07:40:27;3.80;;;1.35;;
59486;SDS011;45298;54.918;73.504;2023-07-24T07:42:57;4.40;;;1.60;;
59486;SDS011;45298;54.918;73.504;2023-07-24T07:45:26;1.75;;;1.17;;
59486;SDS011;45298;54.918;73.504;2023-07-24T07:47:55;1.63;;;1.33;;
59486;SDS011;45298;54.918;73.504;2023-07-24T07:50:24;1.50;;;1.30;;
59486;SDS011;45298;54.918;73.504;2023-07-24T07:52:55;2.17;;;1.42;;
59486;SDS011;45298;54.918;73.504;2023-07-24T07:55:24;2.03;;;1.48;;
59486;SDS011;45298;54.918;73.504;2023-07-24T07:57:53;2.28;;;1.50;;
59486;SDS011;45298;54.918;73.504;2023-07-24T08:00:22;12.60;;;1.90;;
59486;SDS011;45298;54.918;73.504;2023-07-24T08:02:51;4.22;;;1.60;;
59486;SDS011;45298;54.918;73.504;2023-07-24T08:05:20;3.05;;;1.77;;
59486;SDS011;45298;54.918;73.504;2023-07-24T08:07:48;3.28;;;1.85;;
59486;SDS011;45298;54.918;73.504;2023-07-24T08:10:18;4.30;;;1.73;;
59486;SDS011;45298;54.918;73.504;2023-07-24T08:12:47;2.85;;;1.73;;
59486;SDS011;45298;54.918;73.504;2023-07-24T08:15:16;3.05;;;1.80;;
59486;SDS011;45298;54.918;73.504;2023-07-24T08:17:44;4.43;;;2.10;;
59486;SDS011;45298;54.918;73.504;2023-07-24T08:20:13;3.13;;;2.03;;
59486;SDS011;45298;54.918;73.504;2023-07-24T08:22:42;3.50;;;2.13;;
59486;SDS011;45298;54.918;73.504;2023-07-24T08:25:11;3.65;;;2.15;;
59486;SDS011;45298;54.918;73.504;2023-07-24T08:27:40;2.45;;;2.08;;
59486;SDS011;45298;54.918;73.504;2023-07-24T08:30:30;3.15;;;2.65;;
59486;SDS011;45298;54.918;73.504;2023-07-24T08:32:59;3.13;;;2.40;;
59486;SDS011;45298;54.918;73.504;2023-07-24T08:35:29;5.13;;;2.70;;
59486;SDS011;45298;54.918;73.504;2023-07-24T08:37:58;4.95;;;2.70;;
59486;SDS011;45298;54.918;73.504;2023-07-24T08:40:26;5.35;;;3.17;;
59486;SDS011;45298;54.918;73.504;2023-07-24T08:42:55;5.45;;;2.83;;
59486;SDS011;45298;54.918;73.504;2023-07-24T08:45:25;4.47;;;2.80;;
59486;SDS011;45298;54.918;73.504;2023-07-24T08:47:55;5.63;;;2.92;;
59486;SDS011;45298;54.918;73.504;2023-07-24T08:50:27;4.47;;;3.28;;
59486;SDS011;45298;54.918;73.504;2023-07-24T08:52:57;9.43;;;3.05;;
59486;SDS011;45298;54.918;73.504;2023-07-24T08:55:27;4.78;;;3.10;;
59486;SDS011;45298;54.918;73.504;2023-07-24T08:57:57;4.63;;;2.90;;
59486;SDS011;45298;54.918;73.504;2023-07-24T09:00:28;4.25;;;2.95;;
59486;SDS011;45298;54.918;73.504;2023-07-24T09:02:57;4.45;;;3.20;;
59486;SDS011;45298;54.918;73.504;2023-07-24T09:05:26;4.97;;;3.38;;
59486;SDS011;45298;54.918;73.504;2023-07-24T09:07:55;6.03;;;3.40;;
59486;SDS011;45298;54.918;73.504;2023-07-24T09:10:27;4.13;;;2.95;;
59486;SDS011;45298;54.918;73.504;2023-07-24T09:12:56;5.95;;;3.10;;
59486;SDS011;45298;54.918;73.504;2023-07-24T09:15:26;5.78;;;3.20;;
59486;SDS011;45298;54.918;73.504;2023-07-24T09:17:55;9.00;;;3.55;;
59486;SDS011;45298;54.918;73.504;2023-07-24T09:20:25;6.70;;;3.78;;
59486;SDS011;45298;54.918;73.504;2023-07-24T09:22:58;8.73;;;3.42;;
59486;SDS011;45298;54.918;73.504;2023-07-24T09:25:44;5.25;;;3.30;;
59486;SDS011;45298;54.918;73.504;2023-07-24T09:28:17;5.75;;;3.38;;
59486;SDS011;45298;54.918;73.504;2023-07-24T09:30:56;5.22;;;3.20;;
59486;SDS011;45298;54.918;73.504;2023-07-24T09:33:40;5.47;;;3.25;;
59486;SDS011;45298;54.918;73.504;2023-07-24T09:36:17;5.22;;;3.08;;
59486;SDS011;45298;54.918;73.504;2023-07-24T09:38:46;8.65;;;3.38;;
59486;SDS011;45298;54.918;73.504;2023-07-24T09:41:15;11.27;;;7.10;;
59486;SDS011;45298;54.918;73.504;2023-07-24T09:43:45;5.82;;;3.38;;
59486;SDS011;45298;54.918;73.504;2023-07-24T09:46:14;5.93;;;3.17;;
59486;SDS011;45298;54.918;73.504;2023-07-24T09:48:46;8.25;;;5.20;;
59486;SDS011;45298;54.918;73.504;2023-07-24T09:51:37;8.82;;;4.07;;
59486;SDS011;45298;54.918;73.504;2023-07-24T09:54:20;11.57;;;4.90;;
59486;SDS011;45298;54.918;73.504;2023-07-24T09:56:54;6.78;;;4.60;;
59486;SDS011;45298;54.918;73.504;2023-07-24T09:59:47;9.75;;;5.10;;
59486;SDS011;45298;54.918;73.504;2023-07-24T10:02:17;13.27;;;4.18;;
59486;SDS011;45298;54.918;73.504;2023-07-24T10:04:47;9.20;;;4.00;;
59486;SDS011;45298;54.918;73.504;2023-07-24T10:07:17;7.22;;;4.22;;
59486;SDS011;45298;54.918;73.504;2023-07-24T10:09:50;8.60;;;4.32;;
59486;SDS011;45298;54.918;73.504;2023-07-24T10:12:19;7.80;;;4.10;;
59486;SDS011;45298;54.918;73.504;2023-07-24T10:14:49;7.28;;;3.90;;
59486;SDS011;45298;54.918;73.504;2023-07-24T10:17:35;5.88;;;3.70;;
59486;SDS011;45298;54.918;73.504;2023-07-24T10:20:05;8.70;;;3.70;;
59486;SDS011;45298;54.918;73.504;2023-07-24T10:22:36;5.90;;;3.55;;
59486;SDS011;45298;54.918;73.504;2023-07-24T10:25:10;5.53;;;3.40;;
59486;SDS011;45298;54.918;73.504;2023-07-24T10:27:41;5.45;;;3.25;;
59486;SDS011;45298;54.918;73.504;2023-07-24T10:30:28;11.07;;;3.20;;
59486;SDS011;45298;54.918;73.504;2023-07-24T10:33:12;5.70;;;2.90;;
59486;SDS011;45298;54.918;73.504;2023-07-24T10:35:46;5.60;;;2.47;;
59486;SDS011;45298;54.918;73.504;2023-07-24T10:38:19;6.18;;;2.00;;
59486;SDS011;45298;54.918;73.504;2023-07-24T10:41:04;4.70;;;2.10;;
59486;SDS011;45298;54.918;73.504;2023-07-24T10:43:41;4.03;;;2.58;;
59486;SDS011;45298;54.918;73.504;2023-07-24T10:46:15;5.25;;;2.55;;
59486;SDS011;45298;54.918;73.504;2023-07-24T10:48:47;3.97;;;2.80;;
59486;SDS011;45298;54.918;73.504;2023-07-24T10:51:17;7.32;;;3.10;;
59486;SDS011;45298;54.918;73.504;2023-07-24T10:53:47;6.15;;;2.83;;
59486;SDS011;45298;54.918;73.504;2023-07-24T10:56:19;4.82;;;2.92;;
59486;SDS011;45298;54.918;73.504;2023-07-24T10:58:48;6.70;;;2.80;;
59486;SDS011;45298;54.918;73.504;2023-07-24T11:01:18;5.70;;;2.80;;
59486;SDS011;45298;54.918;73.504;2023-07-24T11:03:49;4.90;;;2.80;;
59486;SDS011;45298;54.918;73.504;2023-07-24T11:06:19;5.45;;;2.80;;
59486;SDS011;45298;54.918;73.504;2023-07-24T11:08:57;6.13;;;2.90;;
59486;SDS011;45298;54.918;73.504;2023-07-24T11:11:30;7.03;;;2.90;;
59486;SDS011;45298;54.918;73.504;2023-07-24T11:14:01;4.97;;;3.05;;
59486;SDS011;45298;54.918;73.504;2023-07-24T11:16:31;5.60;;;2.83;;
59486;SDS011;45298;54.918;73.504;2023-07-24T11:19:01;6.85;;;2.90;;
59486;SDS011;45298;54.918;73.504;2023-07-24T11:21:31;4.18;;;2.85;;
59486;SDS011;45298;54.918;73.504;2023-07-24T11:24:06;9.05;;;3.60;;
59486;SDS011;45298;54.918;73.504;2023-07-24T11:26:37;5.25;;;3.45;;
59486;SDS011;45298;54.918;73.504;2023-07-24T11:29:12;7.00;;;3.50;;
59486;SDS011;45298;54.918;73.504;2023-07-24T11:31:43;6.63;;;3.28;;
59486;SDS011;45298;54.918;73.504;2023-07-24T11:34:12;8.63;;;4.05;;
59486;SDS011;45298;54.918;73.504;2023-07-24T11:36:42;8.15;;;4.72;;
59486;SDS011;45298;54.918;73.504;2023-07-24T11:39:12;15.30;;;5.53;;
59486;SDS011;45298;54.918;73.504;2023-07-24T11:41:45;12.05;;;7.00;;
59486;SDS011;45298;54.918;73.504;2023-07-24T11:44:15;6.20;;;4.55;;
59486;SDS011;45298;54.918;73.504;2023-07-24T11:46:52;9.70;;;6.20;;
59486;SDS011;45298;54.918;73.504;2023-07-24T11:49:35;9.00;;;4.72;;
59486;SDS011;45298;54.918;73.504;2023-07-24T11:52:05;11.93;;;6.32;;
59486;SDS011;45298;54.918;73.504;2023-07-24T11:54:35;12.98;;;6.70;;
59486;SDS011;45298;54.918;73.504;2023-07-24T11:57:14;10.77;;;5.47;;
59486;SDS011;45298;54.918;73.504;2023-07-24T11:59:44;11.15;;;5.55;;
59486;SDS011;45298;54.918;73.504;2023-07-24T12:02:13;8.68;;;5.07;;
59486;SDS011;45298;54.918;73.504;2023-07-24T12:04:43;10.85;;;5.45;;
59486;SDS011;45298;54.918;73.504;2023-07-24T12:07:12;7.32;;;4.82;;
59486;SDS011;45298;54.918;73.504;2023-07-24T12:09:41;15.10;;;4.72;;
59486;SDS011;45298;54.918;73.504;2023-07-24T12:12:19;8.68;;;3.53;;
59486;SDS011;45298;54.918;73.504;2023-07-24T12:14:48;7.45;;;3.38;;
59486;SDS011;45298;54.918;73.504;2023-07-24T12:17:19;6.38;;;3.85;;
59486;SDS011;45298;54.918;73.504;2023-07-24T12:19:48;8.70;;;3.38;;
59486;SDS011;45298;54.918;73.504;2023-07-24T12:22:17;5.88;;;3.45;;
59486;SDS011;45298;54.918;73.504;2023-07-24T12:24:47;6.70;;;3.47;;
59486;SDS011;45298;54.918;73.504;2023-07-24T12:27:17;4.82;;;3.50;;
59486;SDS011;45298;54.918;73.504;2023-07-24T12:29:46;6.68;;;3.30;;
59486;SDS011;45298;54.918;73.504;2023-07-24T12:32:16;4.95;;;3.35;;
59486;SDS011;45298;54.918;73.504;2023-07-24T12:34:46;11.15;;;5.03;;
59486;SDS011;45298;54.918;73.504;2023-07-24T12:37:16;8.88;;;5.22;;
59486;SDS011;45298;54.918;73.504;2023-07-24T12:39:47;9.07;;;4.53;;
59486;SDS011;45298;54.918;73.504;2023-07-24T12:42:17;8.95;;;3.25;;
59486;SDS011;45298;54.918;73.504;2023-07-24T12:44:46;4.93;;;3.10;;
59486;SDS011;45298;54.918;73.504;2023-07-24T12:47:15;8.27;;;3.78;;
59486;SDS011;45298;54.918;73.504;2023-07-24T12:49:45;8.48;;;4.20;;
59486;SDS011;45298;54.918;73.504;2023-07-24T12:52:17;8.25;;;5.25;;
59486;SDS011;45298;54.918;73.504;2023-07-24T12:54:49;10.98;;;5.20;;
59486;SDS011;45298;54.918;73.504;2023-07-24T12:57:29;7.25;;;4.40;;
59486;SDS011;45298;54.918;73.504;2023-07-24T12:59:58;8.57;;;4.75;;
59486;SDS011;45298;54.918;73.504;2023-07-24T13:02:27;6.15;;;3.92;;
59486;SDS011;45298;54.918;73.504;2023-07-24T13:04:57;9.07;;;3.80;;
59486;SDS011;45298;54.918;73.504;2023-07-24T13:07:26;9.25;;;5.22;;
59486;SDS011;45298;54.918;73.504;2023-07-24T13:09:58;8.23;;;6.25;;
59486;SDS011;45298;54.918;73.504;2023-07-24T13:12:28;10.93;;;7.60;;
59486;SDS011;45298;54.918;73.504;2023-07-24T13:14:57;7.57;;;5.13;;
59486;SDS011;45298;54.918;73.504;2023-07-24T13:17:26;7.03;;;4.50;;
59486;SDS011;45298;54.918;73.504;2023-07-24T13:19:56;6.80;;;4.10;;
59486;SDS011;45298;54.918;73.504;2023-07-24T13:22:25;9.13;;;3.85;;
59486;SDS011;45298;54.918;73.504;2023-07-24T13:24:54;12.43;;;6.45;;
59486;SDS011;45298;54.918;73.504;2023-07-24T13:27:25;7.03;;;5.20;;
59486;SDS011;45298;54.918;73.504;2023-07-24T13:29:55;4.32;;;3.70;;
59486;SDS011;45298;54.918;73.504;2023-07-24T13:32:24;5.43;;;3.13;;
59486;SDS011;45298;54.918;73.504;2023-07-24T13:34:53;12.05;;;3.60;;
59486;SDS011;45298;54.918;73.504;2023-07-24T13:37:21;6.65;;;3.67;;
59486;SDS011;45298;54.918;73.504;2023-07-24T13:39:52;6.43;;;4.47;;
59486;SDS011;45298;54.918;73.504;2023-07-24T13:42:20;11.65;;;6.10;;
59486;SDS011;45298;54.918;73.504;2023-07-24T13:44:50;7.53;;;4.95;;
59486;SDS011;45298;54.918;73.504;2023-07-24T13:47:20;11.38;;;6.13;;
59486;SDS011;45298;54.918;73.504;2023-07-24T13:49:49;9.52;;;5.45;;
59486;SDS011;45298;54.918;73.504;2023-07-24T13:52:19;8.77;;;5.57;;
59486;SDS011;45298;54.918;73.504;2023-07-24T13:54:48;6.63;;;3.95;;
59486;SDS011;45298;54.918;73.504;2023-07-24T13:57:17;4.88;;;3.40;;
59486;SDS011;45298;54.918;73.504;2023-07-24T13:59:46;5.82;;;3.50;;
59486;SDS011;45298;54.918;73.504;2023-07-24T14:02:16;6.82;;;4.40;;
59486;SDS011;45298;54.918;73.504;2023-07-24T14:04:45;6.75;;;4.20;;
59486;SDS011;45298;54.918;73.504;2023-07-24T14:07:14;10.02;;;4.10;;
59486;SDS011;45298;54.918;73.504;2023-07-24T14:09:43;13.07;;;7.72;;
59486;SDS011;45298;54.918;73.504;2023-07-24T14:12:12;13.73;;;6.60;;
59486;SDS011;45298;54.918;73.504;2023-07-24T14:14:40;11.50;;;4.57;;
59486;SDS011;45298;54.918;73.504;2023-07-24T14:17:10;21.55;;;5.32;;
59486;SDS011;45298;54.918;73.504;2023-07-24T14:19:42;11.32;;;4.00;;
59486;SDS011;45298;54.918;73.504;2023-07-24T14:22:11;8.52;;;4.05;;
59486;SDS011;45298;54.918;73.504;2023-07-24T14:24:43;13.13;;;4.57;;
59486;SDS011;45298;54.918;73.504;2023-07-24T14:27:12;8.15;;;4.63;;
59486;SDS011;45298;54.918;73.504;2023-07-24T14:29:41;7.25;;;4.50;;
59486;SDS011;45298;54.918;73.504;2023-07-24T14:32:10;6.75;;;4.18;;
59486;SDS011;45298;54.918;73.504;2023-07-24T14:34:40;6.32;;;4.20;;
59486;SDS011;45298;54.918;73.504;2023-07-24T14:37:11;7.20;;;4.45;;
59486;SDS011;45298;54.918;73.504;2023-07-24T14:39:40;7.70;;;3.95;;
59486;SDS011;45298;54.918;73.504;2023-07-24T14:42:09;11.63;;;4.40;;
59486;SDS011;45298;54.918;73.504;2023-07-24T14:44:39;9.82;;;4.88;;
59486;SDS011;45298;54.918;73.504;2023-07-24T14:47:09;14.63;;;8.25;;
59486;SDS011;45298;54.918;73.504;2023-07-24T14:49:38;18.42;;;9.68;;
59486;SDS011;45298;54.918;73.504;2023-07-24T14:52:08;12.82;;;8.35;;
59486;SDS011;45298;54.918;73.504;2023-07-24T14:54:37;10.80;;;5.32;;
59486;SDS011;45298;54.918;73.504;2023-07-24T14:57:06;9.10;;;5.05;;